»·PEaware :: DAL5507 KDEN-KLAS

DAL5507 :: KDEN-KLAS

FLIGHT INFORMATION

Flight Status: Arrived
Operator:
Delta Air Lines
More flights by this operator :: More flights under this callsign
Pilot: Ryan B. (8502)
Aircraft: BOEING 757-200
(B752)
More flights by this aircraft type
Origin: KDEN Denver Intl
United States
Destination: KLAS McCarran Intl
United States
More flights between these airports :: More routes between these airports
Route: +CONNR5 DBL J60 HVE GGAPP SITEE3
File this flight plan on PilotEdge
Remarks: SHORTCUTS APPRECIATED
Altitude:
(Current/Filed)
36,000ft
Speed:
(Current/Filed)
448kts
Departed: 08-Oct-18 08:06 AM
Arrived: 08-Oct-18 09:31 AM
Distance/Time
Traveled:
544nm/1:25
Distance/Time
To Go:
Arrived

Flight Plot

Page will automatically refresh every two minutes.

Flight plan parsing failed; only flown route is shown


Map Options




Map Legend


Flown Route
Filed Route
Departure Airport
Arrival Airport
Navaid (VOR, NDB)
Fix

Horizontal Profiles

Position Reports

Time Latitude Longitude Heading Altitude Ground
Speed
08-Oct-18 07:44 39.853302 -104.677555 45 5370ft 0kts
08-Oct-18 07:45 39.853302 -104.677555 45 5370ft 0kts
08-Oct-18 07:46 39.853302 -104.677555 45 5370ft 0kts
08-Oct-18 07:47 39.853302 -104.677555 45 5370ft 0kts
08-Oct-18 07:48 39.853302 -104.677555 45 5370ft 0kts
08-Oct-18 07:49 39.853302 -104.677555 45 5370ft 0kts
08-Oct-18 07:50 39.853302 -104.677555 45 5370ft 0kts
08-Oct-18 07:51 39.853302 -104.677555 45 5370ft 0kts
08-Oct-18 07:52 39.853302 -104.677555 45 5370ft 0kts
08-Oct-18 07:53 39.853302 -104.677555 45 5370ft 0kts
08-Oct-18 07:54 39.853261 -104.677611 36 5370ft 2kts
08-Oct-18 07:55 39.852801 -104.677326 271 5371ft 2kts
08-Oct-18 07:56 39.852806 -104.677197 266 5371ft 0kts
08-Oct-18 07:57 39.852806 -104.677197 266 5371ft 0kts
08-Oct-18 07:58 39.852813 -104.678096 271 5366ft 10kts
08-Oct-18 07:59 39.852733 -104.685172 193 5316ft 13kts
08-Oct-18 08:00 39.852054 -104.685547 269 5311ft 9kts
08-Oct-18 08:01 39.851964 -104.691750 270 5290ft 19kts
08-Oct-18 08:02 39.852017 -104.694516 271 5296ft 0kts
08-Oct-18 08:03 39.852017 -104.694516 271 5296ft 0kts
08-Oct-18 08:04 39.852017 -104.694516 271 5296ft 0kts
08-Oct-18 08:05 39.852017 -104.694516 271 5296ft 0kts
08-Oct-18 08:06 39.852017 -104.694516 271 5296ft 0kts
08-Oct-18 08:07 39.852062 -104.696366 280 5303ft 5kts
08-Oct-18 08:08 39.866108 -104.696462 2 5276ft 165kts
08-Oct-18 08:09 39.901637 -104.725858 258 7248ft 189kts
08-Oct-18 08:10 39.885875 -104.789219 263 8774ft 212kts
08-Oct-18 08:11 39.866145 -104.872451 250 9991ft 285kts
08-Oct-18 08:12 39.843570 -104.975156 251 12192ft 310kts
08-Oct-18 08:13 39.819560 -105.089566 251 14431ft 346kts
08-Oct-18 08:14 39.792528 -105.214134 249 16543ft 375kts
08-Oct-18 08:15 39.763527 -105.346499 248 18475ft 405kts
08-Oct-18 08:16 39.732296 -105.489068 249 20284ft 433kts
08-Oct-18 08:17 39.700035 -105.643687 250 22213ft 452kts
08-Oct-18 08:18 39.680049 -105.807282 255 24110ft 469kts
08-Oct-18 08:19 39.662374 -105.973437 254 25824ft 479kts
08-Oct-18 08:20 39.644516 -106.141613 254 27154ft 489kts
08-Oct-18 08:21 39.622175 -106.316136 244 28484ft 484kts
08-Oct-18 08:22 39.573230 -106.475515 239 29897ft 475kts
08-Oct-18 08:23 39.523303 -106.629732 238 31425ft 469kts
08-Oct-18 08:24 39.473703 -106.782380 238 33261ft 456kts
08-Oct-18 08:25 39.427963 -106.933010 243 34481ft 461kts
08-Oct-18 08:26 39.388991 -107.090560 243 35500ft 461kts
08-Oct-18 08:27 39.349147 -107.246067 244 35963ft 460kts
08-Oct-18 08:28 39.309715 -107.401318 244 35989ft 460kts
08-Oct-18 08:29 39.270482 -107.558816 244 35983ft 460kts
08-Oct-18 08:30 39.230963 -107.713610 243 35929ft 458kts
08-Oct-18 08:31 39.190827 -107.868555 243 35906ft 458kts
08-Oct-18 08:32 39.149959 -108.023966 243 35905ft 458kts
08-Oct-18 08:33 39.109378 -108.177263 242 35887ft 458kts
08-Oct-18 08:34 39.067866 -108.331705 243 35876ft 458kts
08-Oct-18 08:35 39.026670 -108.486834 243 35876ft 459kts
08-Oct-18 08:36 38.986117 -108.641492 244 35876ft 460kts
08-Oct-18 08:37 38.946260 -108.794501 243 35877ft 459kts
08-Oct-18 08:38 38.904602 -108.947969 242 35873ft 456kts
08-Oct-18 08:39 38.861069 -109.103312 249 35887ft 479kts
08-Oct-18 08:40 38.816045 -109.268073 254 35884ft 495kts
08-Oct-18 08:41 38.770228 -109.435103 253 35883ft 498kts
08-Oct-18 08:42 38.724221 -109.602063 254 35884ft 499kts
08-Oct-18 08:43 38.679128 -109.769598 253 35883ft 499kts
08-Oct-18 08:44 38.631675 -109.935956 252 35884ft 499kts
08-Oct-18 08:45 38.584097 -110.102690 253 35884ft 499kts
08-Oct-18 08:46 38.536809 -110.269194 253 35885ft 499kts
08-Oct-18 08:47 38.490007 -110.433235 253 35885ft 499kts
08-Oct-18 08:48 38.442265 -110.599581 253 35886ft 499kts
08-Oct-18 08:49 38.381453 -110.749972 235 35930ft 506kts
08-Oct-18 08:50 38.296547 -110.892880 235 35992ft 507kts
08-Oct-18 08:51 38.210011 -111.035695 236 35996ft 517kts
08-Oct-18 08:52 38.121730 -111.180503 238 35998ft 520kts
08-Oct-18 08:53 38.033386 -111.324743 238 35971ft 520kts
08-Oct-18 08:54 37.945418 -111.467707 238 35916ft 519kts
08-Oct-18 08:55 37.858554 -111.608255 238 35928ft 520kts
08-Oct-18 08:56 37.769799 -111.751249 237 35935ft 521kts
08-Oct-18 08:57 37.680586 -111.894352 237 35935ft 520kts
08-Oct-18 08:58 37.595854 -112.029690 237 35937ft 520kts
08-Oct-18 08:59 37.510964 -112.176116 246 35944ft 513kts
08-Oct-18 09:00 37.441165 -112.321989 246 35939ft 513kts
08-Oct-18 09:01 37.371582 -112.468362 245 35941ft 512kts
08-Oct-18 09:02 37.298073 -112.620722 245 35944ft 510kts
08-Oct-18 09:03 37.224326 -112.772671 244 35931ft 513kts
08-Oct-18 09:04 37.150022 -112.924999 245 35641ft 520kts
08-Oct-18 09:05 37.075624 -113.076718 247 33307ft 507kts
08-Oct-18 09:06 37.001684 -113.227085 247 30985ft 511kts
08-Oct-18 09:07 36.926799 -113.377494 246 28558ft 506kts
08-Oct-18 09:08 36.855972 -113.520789 245 26151ft 487kts
08-Oct-18 09:09 36.786337 -113.660593 243 23783ft 469kts
08-Oct-18 09:10 36.732174 -113.767063 243 22007ft 453kts
08-Oct-18 09:11 36.666977 -113.897239 243 19890ft 432kts
08-Oct-18 09:12 36.605381 -114.020785 242 17923ft 413kts
08-Oct-18 09:13 36.545302 -114.139647 241 15846ft 399kts
08-Oct-18 09:14 36.487260 -114.253659 239 13845ft 385kts
08-Oct-18 09:15 36.430581 -114.363185 239 12014ft 367kts
08-Oct-18 09:16 36.380553 -114.460867 240 11991ft 311kts
08-Oct-18 09:17 36.333387 -114.551159 239 11995ft 312kts
08-Oct-18 09:18 36.308495 -114.599052 240 11995ft 312kts
08-Oct-18 09:19 36.308495 -114.599052 240 11995ft 312kts
08-Oct-18 09:20 36.306568 -114.602789 240 11995ft 311kts
08-Oct-18 09:21 36.263670 -114.685845 239 10745ft 295kts
08-Oct-18 09:22 36.220144 -114.772636 241 8475ft 287kts
08-Oct-18 09:23 36.177557 -114.856122 240 7240ft 294kts
08-Oct-18 09:24 36.135128 -114.939285 247 5991ft 276kts
08-Oct-18 09:25 36.122576 -115.030573 251 5998ft 277kts
08-Oct-18 09:26 36.094040 -115.118866 251 6002ft 278kts
08-Oct-18 09:27 36.065126 -115.207552 249 6011ft 279kts
08-Oct-18 09:28 36.012040 -115.269230 221 5490ft 246kts
08-Oct-18 09:29 35.954598 -115.266100 113 5019ft 238kts
08-Oct-18 09:30 35.980894 -115.218167 9 4760ft 174kts
08-Oct-18 09:31 36.023605 -115.199424 22 3538ft 157kts
08-Oct-18 09:32 36.060685 -115.178695 21 2679ft 124kts
08-Oct-18 09:33 36.087558 -115.163346 25 2139ft 39kts
08-Oct-18 09:34 36.086395 -115.158286 181 2128ft 11kts
08-Oct-18 09:35 36.082369 -115.158233 179 2136ft 21kts
08-Oct-18 09:36 36.078075 -115.154990 91 2135ft 33kts
08-Oct-18 09:37 36.078244 -115.142034 91 2089ft 35kts
08-Oct-18 09:38 36.080692 -115.138513 314 2071ft 1kts

Navigation Log

Ident Type
Flight plan parsing failed, navigation log unavailable